Terminal Aerodrome Forecast
Issued by NWS Cleveland, OH

Home | Current Version | Previous Version | Graphics & Text | Print | Product List | Glossary On
Versions: 1 2 3 4 5 6 7 8 9 10 11 12 13 14 15 16 17 18 19 20 21 22 23 24 25 26 27
043
FTUS41 KCLE 021252 AAB
TAFCLE
TAF AMD
KCLE 021252Z 0213/0318 02010KT 6SM BR OVC007
      TEMPO 0213/0214 2SM BR OVC003
     FM021700 02008KT P6SM OVC015
     FM030100 04005KT P6SM OVC035
     FM030900 VRB02KT P6SM OVC025
     FM031200 VRB04KT P6SM OVC035=

USA.gov is the U.S. government's official web portal to all federal, state and local government web resources and services.